Time;durP1;ratioP1;P1;durP2;ratioP2;P2;SDS_P1;SDS_P2;PMS_P1;PMS_P2;Temp;Humidity;BMP_temperature;BMP_pressure;BME280_temperature;BME280_humidity;BME280_pressure;Samples;Min_cycle;Max_cycle;Signal;HPM_P1;HPM_P2
2022/11/10 00:00:27;;;;;;;;;;;11.20;99.90;;;;;;5032599;28;19917;-64
2022/11/10 00:02:52;;;;;;;;;;;11.30;99.90;;;;;;5030647;28;20010;-64
2022/11/10 00:05:18;;;;;;;;;;;11.50;99.90;;;;;;5027641;28;19948;-64
2022/11/10 00:07:44;;;;;;;;;;;11.60;99.90;;;;;;5026588;28;19921;-65
2022/11/10 00:10:09;;;;;;;;;;;11.80;99.90;;;;;;5032289;28;19913;-64
2022/11/10 00:12:35;;;;;;;;;;;11.80;99.90;;;;;;5029391;28;19996;-64
2022/11/10 00:17:45;;;;;;;;;;;11.70;99.90;;;;;;5025382;28;20241;-64
2022/11/10 00:20:11;;;;;;;;;;;11.60;99.90;;;;;;5029079;28;20358;-64
2022/11/10 00:22:37;;;;;;;;;;;11.70;99.90;;;;;;5028093;28;20296;-64
2022/11/10 00:25:03;;;;;;;;;;;11.80;99.90;;;;;;5017834;28;19917;-64
2022/11/10 00:27:30;;;;;;;;;;;11.80;99.90;;;;;;5023630;28;19919;-62
2022/11/10 00:29:56;;;;;;;;;;;11.80;99.90;;;;;;5026516;28;20403;-62
2022/11/10 00:32:22;;;;;;;;;;;11.80;99.90;;;;;;5030046;28;19917;-63
2022/11/10 00:34:47;;;;;;;;;;;11.80;99.90;;;;;;5026752;28;19913;-63
2022/11/10 00:37:13;;;;;;;;;;;11.90;99.90;;;;;;5026628;28;19925;-64
2022/11/10 00:39:38;;;;;;;;;;;12.00;99.90;;;;;;5026619;28;20004;-63
2022/11/10 00:42:05;;;;;;;;;;;12.10;99.90;;;;;;5030483;28;19913;-63
2022/11/10 00:44:30;;;;;;;;;;;12.20;99.90;;;;;;5029112;28;19913;-63
2022/11/10 00:46:56;;;;;;;;;;;12.30;99.90;;;;;;5030748;28;19928;-63
2022/11/10 00:49:21;;;;;;;;;;;12.30;99.90;;;;;;5028866;28;19917;-65
2022/11/10 00:51:47;;;;;;;;;;;12.30;99.90;;;;;;5028600;28;19936;-64
2022/11/10 00:54:12;;;;;;;;;;;12.20;99.90;;;;;;5030960;28;20379;-63
2022/11/10 00:56:38;;;;;;;;;;;12.30;99.90;;;;;;5027536;28;20292;-62
2022/11/10 00:59:04;;;;;;;;;;;12.40;99.90;;;;;;5026174;28;19917;-64
2022/11/10 01:01:29;;;;;;;;;;;12.50;99.90;;;;;;5025112;28;19928;-63
2022/11/10 01:03:55;;;;;;;;;;;12.50;99.90;;;;;;5031126;28;19924;-64
2022/11/10 01:06:21;;;;;;;;;;;12.60;99.90;;;;;;5030648;28;20289;-68
2022/11/10 01:08:47;;;;;;;;;;;12.70;99.90;;;;;;5028179;28;20051;-65
2022/11/10 01:11:14;;;;;;;;;;;12.60;99.90;;;;;;5026081;28;19952;-63
2022/11/10 01:13:40;;;;;;;;;;;12.60;99.90;;;;;;5028530;28;19931;-64
2022/11/10 01:16:13;;;;;;;;;;;12.50;99.90;;;;;;5030717;28;19916;-63
2022/11/10 01:18:39;;;;;;;;;;;12.50;99.90;;;;;;5027986;28;19924;-64
2022/11/10 01:21:05;;;;;;;;;;;12.60;99.90;;;;;;5030215;28;19976;-63
2022/11/10 01:23:30;;;;;;;;;;;12.60;99.90;;;;;;5028716;28;20377;-65
2022/11/10 01:25:57;;;;;;;;;;;12.70;99.90;;;;;;5030002;28;20269;-63
2022/11/10 01:28:22;;;;;;;;;;;12.70;99.90;;;;;;5029687;28;19917;-64
2022/11/10 01:30:48;;;;;;;;;;;12.70;99.90;;;;;;5029125;28;19917;-64
2022/11/10 01:33:16;;;;;;;;;;;12.70;99.90;;;;;;5030616;28;20387;-64
2022/11/10 01:35:42;;;;;;;;;;;12.60;99.90;;;;;;5028772;28;19921;-64
2022/11/10 01:38:07;;;;;;;;;;;12.50;99.90;;;;;;5029847;28;19914;-64
2022/11/10 01:40:33;;;;;;;;;;;12.30;99.90;;;;;;5028966;28;19967;-64
2022/11/10 01:42:59;;;;;;;;;;;12.40;99.90;;;;;;5022703;28;19963;-64
2022/11/10 01:45:24;;;;;;;;;;;12.50;99.90;;;;;;5030528;28;20000;-64
2022/11/10 01:47:52;;;;;;;;;;;12.40;99.90;;;;;;5027892;28;20377;-64
2022/11/10 01:50:18;;;;;;;;;;;12.40;99.90;;;;;;5021845;28;19913;-64
2022/11/10 01:52:46;;;;;;;;;;;12.30;99.90;;;;;;5024184;28;20280;-64
2022/11/10 01:55:12;;;;;;;;;;;12.40;99.90;;;;;;5030334;28;20430;-64
2022/11/10 01:57:39;;;;;;;;;;;12.50;99.90;;;;;;5027135;28;19960;-64
2022/11/10 02:00:05;;;;;;;;;;;12.50;99.90;;;;;;5018550;28;19917;-63
2022/11/10 02:02:33;;;;;;;;;;;12.60;99.90;;;;;;5025559;28;19914;-63
2022/11/10 02:05:00;;;;;;;;;;;12.60;99.90;;;;;;5028831;28;19917;-64
2022/11/10 02:07:26;;;;;;;;;;;12.70;99.90;;;;;;5029255;28;19913;-65
2022/11/10 02:09:52;;;;;;;;;;;12.80;99.90;;;;;;5027522;28;19920;-64
2022/11/10 02:12:35;;;;;;;;;;;12.80;99.90;;;;;;5029660;28;19967;-64
2022/11/10 02:15:05;;;;;;;;;;;12.80;99.90;;;;;;5026918;28;20412;-64
2022/11/10 02:17:31;;;;;;;;;;;13.00;99.90;;;;;;5027248;28;19952;-65
2022/11/10 02:20:03;;;;;;;;;;;13.00;99.90;;;;;;5027423;28;19917;-64
2022/11/10 02:22:32;;;;;;;;;;;13.00;99.90;;;;;;5030058;28;20329;-64
2022/11/10 02:24:57;;;;;;;;;;;13.10;99.90;;;;;;5029879;28;19961;-64
2022/11/10 02:27:23;;;;;;;;;;;13.10;99.90;;;;;;5024996;28;19921;-64
2022/11/10 02:29:49;;;;;;;;;;;13.20;99.90;;;;;;5023030;28;20055;-63
2022/11/10 02:32:14;;;;;;;;;;;13.20;99.90;;;;;;5011666;28;19961;-63
2022/11/10 02:34:40;;;;;;;;;;;13.30;99.90;;;;;;5022907;28;20007;-62
2022/11/10 02:37:05;;;;;;;;;;;13.30;99.90;;;;;;5029817;28;19928;-64
2022/11/10 02:39:31;;;;;;;;;;;13.40;99.90;;;;;;5027248;28;19920;-63
2022/11/10 02:41:56;;;;;;;;;;;13.30;99.90;;;;;;5029308;28;19960;-65
2022/11/10 02:44:22;;;;;;;;;;;13.20;99.90;;;;;;5028081;28;19917;-64
2022/11/10 02:46:48;;;;;;;;;;;13.10;99.90;;;;;;5027742;28;19921;-63
2022/11/10 02:49:13;;;;;;;;;;;13.00;99.90;;;;;;5028413;28;19919;-63
2022/11/10 02:51:39;;;;;;;;;;;12.90;99.90;;;;;;5026408;28;19917;-64
2022/11/10 02:54:07;;;;;;;;;;;12.90;99.90;;;;;;5020769;28;19913;-64
2022/11/10 02:56:34;;;;;;;;;;;12.80;99.90;;;;;;5026389;28;19925;-63
2022/11/10 02:59:00;;;;;;;;;;;12.80;99.90;;;;;;5029473;28;19913;-64
2022/11/10 03:01:25;;;;;;;;;;;12.70;99.90;;;;;;5026560;28;20275;-64
2022/11/10 03:03:51;;;;;;;;;;;12.80;99.90;;;;;;5025411;28;19913;-64
2022/11/10 03:06:17;;;;;;;;;;;12.80;99.90;;;;;;5024576;28;19914;-63
2022/11/10 03:08:42;;;;;;;;;;;12.80;99.90;;;;;;5027853;28;19917;-63
2022/11/10 03:11:08;;;;;;;;;;;12.90;99.90;;;;;;5026287;28;20439;-63
2022/11/10 03:13:33;;;;;;;;;;;13.00;99.90;;;;;;5029312;28;19920;-62
2022/11/10 03:15:59;;;;;;;;;;;13.00;99.90;;;;;;5026331;28;20047;-63
2022/11/10 03:18:24;;;;;;;;;;;12.90;99.90;;;;;;5030645;28;19978;-64
2022/11/10 03:20:50;;;;;;;;;;;13.00;99.90;;;;;;5030930;28;19917;-64
2022/11/10 03:23:16;;;;;;;;;;;13.00;99.90;;;;;;5026762;28;19914;-63
2022/11/10 03:25:42;;;;;;;;;;;13.00;99.90;;;;;;5029985;28;19913;-64
2022/11/10 03:28:09;;;;;;;;;;;13.10;99.90;;;;;;5032614;28;20272;-63
2022/11/10 03:30:34;;;;;;;;;;;13.20;99.90;;;;;;5030304;28;19919;-63
2022/11/10 03:33:00;;;;;;;;;;;13.20;99.90;;;;;;5032512;28;19913;-63
2022/11/10 03:35:26;;;;;;;;;;;13.30;99.90;;;;;;5021848;28;19960;-64
2022/11/10 03:37:51;;;;;;;;;;;13.20;99.90;;;;;;5030176;28;20369;-63
2022/11/10 03:40:17;;;;;;;;;;;13.20;99.90;;;;;;5032414;28;19988;-64
2022/11/10 03:42:43;;;;;;;;;;;13.20;99.90;;;;;;5027019;28;20356;-63
2022/11/10 03:45:10;;;;;;;;;;;13.20;99.90;;;;;;5032344;28;19917;-64
2022/11/10 03:47:35;;;;;;;;;;;13.20;99.90;;;;;;5030432;28;19917;-64
2022/11/10 03:50:01;;;;;;;;;;;13.30;99.90;;;;;;5031563;28;19920;-63
2022/11/10 03:52:26;;;;;;;;;;;13.40;99.90;;;;;;5032085;28;20364;-63
2022/11/10 03:54:52;;;;;;;;;;;13.50;99.90;;;;;;5023702;28;19913;-63
2022/11/10 03:57:17;;;;;;;;;;;13.60;99.90;;;;;;5032104;28;20372;-63
2022/11/10 03:59:43;;;;;;;;;;;13.50;99.90;;;;;;5029502;28;19913;-63
2022/11/10 04:02:09;;;;;;;;;;;13.50;99.90;;;;;;5031632;28;20281;-62
2022/11/10 04:10:03;;;;;;;;;;;13.40;99.90;;;;;;5031366;28;19924;-63
2022/11/10 04:20:41;;;;;;;;;;;13.50;99.90;;;;;;5020646;28;19920;-63
2022/11/10 04:26:29;;;;;;;;;;;13.50;99.90;;;;;;5020538;28;19962;-63
2022/11/10 04:28:56;;;;;;;;;;;13.50;99.90;;;;;;5026041;28;19928;-64
2022/11/10 04:31:22;;;;;;;;;;;13.60;99.90;;;;;;5025975;28;20906;-64
2022/11/10 04:33:48;;;;;;;;;;;13.60;99.90;;;;;;5027722;28;20330;-64
2022/11/10 04:36:16;;;;;;;;;;;13.60;99.90;;;;;;5031763;28;20015;-64
2022/11/10 04:38:41;;;;;;;;;;;13.60;99.90;;;;;;5029845;28;20044;-63
2022/11/10 04:41:07;;;;;;;;;;;13.60;99.90;;;;;;5031456;28;20003;-64
2022/11/10 04:43:33;;;;;;;;;;;13.60;99.90;;;;;;5026080;28;19913;-63
2022/11/10 04:45:59;;;;;;;;;;;13.60;99.90;;;;;;5027302;28;19954;-63
2022/11/10 04:48:25;;;;;;;;;;;13.60;99.90;;;;;;5030472;28;19921;-63
2022/11/10 04:50:50;;;;;;;;;;;13.60;99.90;;;;;;5029741;28;20583;-63
2022/11/10 04:53:16;;;;;;;;;;;13.60;99.90;;;;;;5030467;28;20000;-63
2022/11/10 04:55:43;;;;;;;;;;;13.40;99.90;;;;;;5027498;28;19913;-66
2022/11/10 04:58:08;;;;;;;;;;;13.30;99.90;;;;;;5027562;28;19920;-63
2022/11/10 05:00:34;;;;;;;;;;;13.30;99.90;;;;;;5021191;28;19916;-63
2022/11/10 05:03:00;;;;;;;;;;;13.30;99.90;;;;;;5030552;28;19913;-63
2022/11/10 05:05:25;;;;;;;;;;;13.30;99.90;;;;;;5027584;28;19921;-63
2022/11/10 05:07:51;;;;;;;;;;;13.20;99.90;;;;;;5029181;28;19952;-64
2022/11/10 05:10:16;;;;;;;;;;;13.20;99.90;;;;;;5031103;28;20392;-64
2022/11/10 05:12:42;;;;;;;;;;;13.20;99.90;;;;;;5028392;28;19999;-63
2022/11/10 05:15:08;;;;;;;;;;;13.30;99.90;;;;;;5030027;28;19913;-64
2022/11/10 05:17:33;;;;;;;;;;;13.30;99.90;;;;;;5029168;28;20333;-63
2022/11/10 05:19:59;;;;;;;;;;;13.40;99.90;;;;;;5030896;28;20012;-63
2022/11/10 05:22:24;;;;;;;;;;;13.40;99.90;;;;;;5029860;28;20503;-63
2022/11/10 05:24:50;;;;;;;;;;;13.40;99.90;;;;;;5028797;28;20474;-63
2022/11/10 05:27:16;;;;;;;;;;;13.40;99.90;;;;;;5030368;28;20007;-64
2022/11/10 05:29:41;;;;;;;;;;;13.40;99.90;;;;;;5029124;28;19913;-63
2022/11/10 05:32:07;;;;;;;;;;;13.40;99.90;;;;;;5029836;28;19913;-63
2022/11/10 05:34:32;;;;;;;;;;;13.40;99.90;;;;;;5028180;28;20329;-63
2022/11/10 05:36:58;;;;;;;;;;;13.40;99.90;;;;;;5030513;28;20309;-64
2022/11/10 05:39:24;;;;;;;;;;;13.40;99.90;;;;;;5030466;28;19913;-64
2022/11/10 05:41:50;;;;;;;;;;;13.30;99.90;;;;;;5026941;28;20444;-63
2022/11/10 05:44:15;;;;;;;;;;;13.20;99.90;;;;;;5015911;28;19920;-64
2022/11/10 05:46:41;;;;;;;;;;;13.20;99.90;;;;;;5024870;28;19921;-63
2022/11/10 05:49:07;;;;;;;;;;;13.10;99.90;;;;;;5020880;28;19913;-63
2022/11/10 05:51:32;;;;;;;;;;;13.10;99.90;;;;;;5016744;28;19921;-63
2022/11/10 05:53:58;;;;;;;;;;;13.10;99.90;;;;;;5026795;28;19913;-63
2022/11/10 05:56:24;;;;;;;;;;;13.00;99.90;;;;;;5029535;28;19917;-62
2022/11/10 05:58:49;;;;;;;;;;;12.90;99.90;;;;;;5028360;28;19917;-63
2022/11/10 06:01:15;;;;;;;;;;;13.00;99.90;;;;;;5019054;28;20402;-63
2022/11/10 06:03:40;;;;;;;;;;;12.90;99.90;;;;;;5024927;28;19917;-63
2022/11/10 06:06:06;;;;;;;;;;;13.00;99.90;;;;;;5023117;28;20424;-63
2022/11/10 06:08:32;;;;;;;;;;;13.10;99.90;;;;;;5027357;28;19921;-63
2022/11/10 06:10:58;;;;;;;;;;;13.20;99.90;;;;;;5017704;28;19968;-63
2022/11/10 06:13:24;;;;;;;;;;;13.20;99.90;;;;;;5026826;28;19925;-63
2022/11/10 06:15:50;;;;;;;;;;;13.30;99.90;;;;;;5028438;28;19956;-64
2022/11/10 06:18:15;;;;;;;;;;;13.30;99.90;;;;;;5019379;28;19963;-63
2022/11/10 06:20:41;;;;;;;;;;;13.40;99.90;;;;;;5019962;28;19966;-63
2022/11/10 06:23:09;;;;;;;;;;;13.40;99.90;;;;;;5026315;28;19959;-63
2022/11/10 06:25:35;;;;;;;;;;;13.30;99.90;;;;;;5025302;28;19913;-63
2022/11/10 06:28:01;;;;;;;;;;;13.30;99.90;;;;;;5023907;28;19917;-63
2022/11/10 06:30:27;;;;;;;;;;;13.20;99.90;;;;;;5027369;28;20360;-63
2022/11/10 06:32:53;;;;;;;;;;;13.20;99.90;;;;;;5020876;28;19920;-63
2022/11/10 06:35:19;;;;;;;;;;;13.10;99.90;;;;;;5020275;28;19913;-63
2022/11/10 06:37:45;;;;;;;;;;;13.10;99.90;;;;;;5020583;28;19921;-65
2022/11/10 06:40:12;;;;;;;;;;;13.10;99.90;;;;;;5015871;28;19917;-64
2022/11/10 06:42:38;;;;;;;;;;;13.10;99.90;;;;;;5023903;28;19967;-64
2022/11/10 06:45:04;;;;;;;;;;;13.10;99.90;;;;;;5027249;28;19917;-63
2022/11/10 06:47:30;;;;;;;;;;;13.00;99.90;;;;;;5026731;28;19917;-63
2022/11/10 06:49:57;;;;;;;;;;;13.00;99.90;;;;;;5028861;28;20298;-64
2022/11/10 06:52:23;;;;;;;;;;;13.00;99.90;;;;;;5029656;28;19924;-64
2022/11/10 06:54:48;;;;;;;;;;;12.90;99.90;;;;;;5022200;28;20312;-63
2022/11/10 06:57:14;;;;;;;;;;;12.80;99.90;;;;;;5030580;28;19927;-64
2022/11/10 06:59:39;;;;;;;;;;;12.70;99.90;;;;;;5024535;28;19920;-64
2022/11/10 07:02:05;;;;;;;;;;;12.70;99.90;;;;;;5028526;28;19960;-64
2022/11/10 07:04:31;;;;;;;;;;;12.70;99.90;;;;;;5028224;28;19920;-63
2022/11/10 07:06:57;;;;;;;;;;;12.70;99.90;;;;;;5032599;28;20007;-64
2022/11/10 07:09:22;;;;;;;;;;;12.70;99.90;;;;;;5024892;28;19967;-63
2022/11/10 07:11:48;;;;;;;;;;;12.70;99.90;;;;;;5022617;28;19953;-63
2022/11/10 07:14:13;;;;;;;;;;;12.80;99.90;;;;;;5028249;28;19917;-62
2022/11/10 07:16:39;;;;;;;;;;;12.80;99.90;;;;;;5026649;28;19921;-63
2022/11/10 07:19:04;;;;;;;;;;;12.80;99.90;;;;;;5023639;28;19948;-64
2022/11/10 07:21:30;;;;;;;;;;;12.90;99.90;;;;;;5031776;28;19920;-63
2022/11/10 07:23:56;;;;;;;;;;;13.00;99.90;;;;;;5023682;28;20325;-64
2022/11/10 07:26:21;;;;;;;;;;;13.00;99.90;;;;;;5021879;28;19980;-63
2022/11/10 07:28:47;;;;;;;;;;;13.00;99.90;;;;;;5025532;28;19913;-63
2022/11/10 07:31:12;;;;;;;;;;;13.10;99.90;;;;;;5027655;28;20377;-64
2022/11/10 07:33:38;;;;;;;;;;;13.10;99.90;;;;;;5026752;28;19914;-63
2022/11/10 07:36:04;;;;;;;;;;;13.20;99.90;;;;;;5024559;28;19928;-65
2022/11/10 07:38:29;;;;;;;;;;;13.20;99.90;;;;;;5026548;28;19913;-63
2022/11/10 07:40:55;;;;;;;;;;;13.30;99.90;;;;;;5025563;28;20274;-63
2022/11/10 07:43:22;;;;;;;;;;;13.30;99.90;;;;;;5031103;28;19967;-63
2022/11/10 07:45:51;;;;;;;;;;;13.40;99.90;;;;;;5026494;28;19968;-64
2022/11/10 07:48:16;;;;;;;;;;;13.60;99.90;;;;;;5032169;28;19913;-63
2022/11/10 07:50:42;;;;;;;;;;;13.70;99.90;;;;;;5024778;28;19920;-64
2022/11/10 07:53:12;;;;;;;;;;;13.70;99.90;;;;;;5023663;28;19917;-64
2022/11/10 07:55:38;;;;;;;;;;;13.70;99.90;;;;;;5024512;28;20007;-65
2022/11/10 07:58:04;;;;;;;;;;;13.70;99.90;;;;;;5020947;28;19928;-63
2022/11/10 08:00:30;;;;;;;;;;;13.70;99.90;;;;;;5029908;28;20388;-64
2022/11/10 08:03:06;;;;;;;;;;;13.70;99.90;;;;;;5029079;28;20024;-64
2022/11/10 08:05:32;;;;;;;;;;;13.70;99.90;;;;;;5018740;28;19921;-64
2022/11/10 08:07:59;;;;;;;;;;;13.70;99.90;;;;;;5021358;28;19959;-65
2022/11/10 08:10:25;;;;;;;;;;;13.70;99.90;;;;;;5026115;28;19975;-64
2022/11/10 08:12:54;;;;;;;;;;;13.70;99.90;;;;;;5028076;28;19914;-66
2022/11/10 08:15:20;;;;;;;;;;;13.70;99.90;;;;;;5027372;28;19921;-64
2022/11/10 08:17:46;;;;;;;;;;;13.70;99.90;;;;;;5027545;28;19928;-64
2022/11/10 08:20:11;;;;;;;;;;;13.70;99.90;;;;;;5028458;28;19970;-63
2022/11/10 08:22:37;;;;;;;;;;;13.80;99.90;;;;;;5024647;28;19913;-63
2022/11/10 08:25:02;;;;;;;;;;;13.80;99.90;;;;;;5024579;28;19913;-64
2022/11/10 08:27:28;;;;;;;;;;;13.90;99.90;;;;;;5015517;28;20373;-64
2022/11/10 08:29:53;;;;;;;;;;;14.10;99.90;;;;;;5017005;28;19928;-64
2022/11/10 08:32:20;;;;;;;;;;;14.20;99.90;;;;;;5023661;28;19990;-64
2022/11/10 08:34:45;;;;;;;;;;;14.20;99.90;;;;;;5021092;28;20432;-65
2022/11/10 08:37:11;;;;;;;;;;;14.30;99.90;;;;;;5030237;28;20015;-64
2022/11/10 08:39:36;;;;;;;;;;;14.40;99.90;;;;;;5027144;28;20365;-63
2022/11/10 08:42:02;;;;;;;;;;;14.40;99.90;;;;;;5030925;28;19920;-64
2022/11/10 08:44:28;;;;;;;;;;;14.40;99.90;;;;;;5028645;28;19990;-63
2022/11/10 08:46:53;;;;;;;;;;;14.40;99.90;;;;;;5024567;28;19921;-62
2022/11/10 08:49:19;;;;;;;;;;;14.40;99.90;;;;;;5029911;28;19913;-63
2022/11/10 08:51:44;;;;;;;;;;;14.30;99.90;;;;;;5028800;28;20373;-64
2022/11/10 08:54:10;;;;;;;;;;;14.30;99.90;;;;;;5027311;28;20007;-63
2022/11/10 08:56:35;;;;;;;;;;;14.30;99.90;;;;;;5028025;28;19975;-63
2022/11/10 08:59:01;;;;;;;;;;;14.50;99.90;;;;;;5022386;28;19952;-63
2022/11/10 09:01:27;;;;;;;;;;;14.40;99.90;;;;;;5022822;28;20340;-63
2022/11/10 09:03:52;;;;;;;;;;;14.40;99.90;;;;;;5027664;28;19920;-63
2022/11/10 09:06:18;;;;;;;;;;;14.30;99.90;;;;;;5027158;28;19920;-63
2022/11/10 09:08:43;;;;;;;;;;;14.20;99.90;;;;;;5026534;28;19917;-63
2022/11/10 09:11:09;;;;;;;;;;;14.20;99.90;;;;;;5023233;28;20409;-64
2022/11/10 09:13:35;;;;;;;;;;;14.20;99.90;;;;;;5024911;28;19943;-64
2022/11/10 09:16:01;;;;;;;;;;;14.20;99.90;;;;;;5030645;28;19925;-64
2022/11/10 09:18:26;;;;;;;;;;;14.10;99.90;;;;;;5028213;28;20062;-64
2022/11/10 09:20:53;;;;;;;;;;;14.20;99.90;;;;;;5023963;28;20016;-64
2022/11/10 09:23:18;;;;;;;;;;;14.30;99.90;;;;;;5030625;28;19913;-64
2022/11/10 09:25:48;;;;;;;;;;;14.30;99.90;;;;;;5024750;28;19921;-62
2022/11/10 09:28:15;;;;;;;;;;;14.30;99.90;;;;;;5029393;28;19917;-63
2022/11/10 09:30:41;;;;;;;;;;;14.40;99.90;;;;;;5021889;28;20450;-63
2022/11/10 09:33:06;;;;;;;;;;;14.40;99.90;;;;;;5022603;28;20356;-63
2022/11/10 09:35:32;;;;;;;;;;;14.40;99.90;;;;;;5022722;28;19913;-64
2022/11/10 09:37:57;;;;;;;;;;;14.30;99.90;;;;;;5021251;28;19921;-62
2022/11/10 09:40:23;;;;;;;;;;;14.40;99.90;;;;;;5029605;28;19917;-64
2022/11/10 09:42:52;;;;;;;;;;;14.50;99.90;;;;;;5027716;28;19913;-62
2022/11/10 09:45:32;;;;;;;;;;;14.50;99.90;;;;;;5027704;28;19936;-63
2022/11/10 09:48:06;;;;;;;;;;;14.60;99.90;;;;;;5026187;28;20340;-63
2022/11/10 09:50:38;;;;;;;;;;;14.70;99.90;;;;;;5026422;28;19914;-62
2022/11/10 09:53:08;;;;;;;;;;;14.80;99.90;;;;;;5027463;28;19927;-63
2022/11/10 09:55:46;;;;;;;;;;;14.80;99.90;;;;;;5023922;28;19959;-63
2022/11/10 09:58:12;;;;;;;;;;;14.90;99.90;;;;;;5025560;28;19921;-63
2022/11/10 10:00:40;;;;;;;;;;;14.90;99.90;;;;;;5014940;28;19913;-65
2022/11/10 10:03:06;;;;;;;;;;;14.80;99.90;;;;;;5023668;28;19967;-63
2022/11/10 10:05:35;;;;;;;;;;;14.80;99.90;;;;;;5026432;28;19936;-63
2022/11/10 10:08:04;;;;;;;;;;;14.80;99.90;;;;;;5021112;28;20012;-63
2022/11/10 10:10:29;;;;;;;;;;;14.80;99.90;;;;;;5015751;28;19941;-63
2022/11/10 10:12:55;;;;;;;;;;;14.90;99.90;;;;;;5023656;28;20387;-62
2022/11/10 10:15:23;;;;;;;;;;;15.10;99.90;;;;;;5025239;28;19917;-63
2022/11/10 10:17:52;;;;;;;;;;;15.20;99.90;;;;;;5026726;28;19960;-62
2022/11/10 10:20:38;;;;;;;;;;;15.30;99.90;;;;;;5023087;28;19919;-63
2022/11/10 10:23:11;;;;;;;;;;;15.40;99.90;;;;;;5020862;28;19921;-64
2022/11/10 10:25:38;;;;;;;;;;;15.50;99.90;;;;;;5026101;28;20376;-63
2022/11/10 10:28:10;;;;;;;;;;;15.50;99.90;;;;;;5028330;28;19921;-63
2022/11/10 10:30:36;;;;;;;;;;;15.60;99.90;;;;;;5027103;28;19913;-63
2022/11/10 10:33:13;;;;;;;;;;;15.60;99.90;;;;;;5016771;28;19936;-62
2022/11/10 10:35:39;;;;;;;;;;;15.80;99.90;;;;;;5019908;28;19919;-63
2022/11/10 10:38:14;;;;;;;;;;;15.80;99.90;;;;;;5025534;28;19920;-63
2022/11/10 10:40:40;;;;;;;;;;;15.80;99.90;;;;;;5015938;28;20304;-63
2022/11/10 10:43:06;;;;;;;;;;;15.70;99.90;;;;;;5026913;28;19913;-64
2022/11/10 10:45:32;;;;;;;;;;;15.70;99.90;;;;;;5026739;28;19991;-63
2022/11/10 10:47:58;;;;;;;;;;;15.70;99.90;;;;;;5025418;28;20004;-64
2022/11/10 10:50:31;;;;;;;;;;;15.60;99.90;;;;;;5016012;28;19913;-64
2022/11/10 10:53:13;;;;;;;;;;;15.80;99.90;;;;;;5021040;28;19924;-64
2022/11/10 10:55:51;;;;;;;;;;;16.00;99.90;;;;;;5026021;28;20019;-64
2022/11/10 10:58:19;;;;;;;;;;;16.20;99.90;;;;;;5026061;28;19921;-63
2022/11/10 11:00:45;;;;;;;;;;;16.20;99.90;;;;;;5023344;28;19967;-62
2022/11/10 11:03:27;;;;;;;;;;;16.10;99.90;;;;;;5025088;28;19913;-63
2022/11/10 11:06:04;;;;;;;;;;;16.30;99.90;;;;;;5024158;28;20008;-63
2022/11/10 11:08:30;;;;;;;;;;;16.60;99.90;;;;;;5019672;28;19924;-63
2022/11/10 11:11:05;;;;;;;;;;;16.80;99.90;;;;;;5023554;28;20013;-63
2022/11/10 11:13:30;;;;;;;;;;;17.20;99.90;;;;;;5023103;28;19948;-63
2022/11/10 11:16:00;;;;;;;;;;;17.20;99.90;;;;;;5019613;28;20056;-63
2022/11/10 11:18:27;;;;;;;;;;;17.30;99.90;;;;;;5028540;28;19917;-63
2022/11/10 11:21:07;;;;;;;;;;;17.40;99.90;;;;;;5019178;28;19920;-63
2022/11/10 11:23:38;;;;;;;;;;;17.60;99.90;;;;;;5023432;28;19917;-63
2022/11/10 11:26:10;;;;;;;;;;;17.70;99.90;;;;;;5018165;28;20347;-63
2022/11/10 11:28:36;;;;;;;;;;;17.70;99.90;;;;;;5026515;28;19959;-63
2022/11/10 11:31:09;;;;;;;;;;;17.70;99.90;;;;;;5029228;28;20322;-63
2022/11/10 11:33:35;;;;;;;;;;;17.50;99.90;;;;;;5025160;28;19944;-63
2022/11/10 11:36:13;;;;;;;;;;;17.20;99.90;;;;;;5027874;28;19930;-64
2022/11/10 11:38:41;;;;;;;;;;;17.50;99.90;;;;;;5028838;28;19921;-63
2022/11/10 11:41:07;;;;;;;;;;;18.30;99.90;;;;;;5031921;28;20003;-63
2022/11/10 11:43:33;;;;;;;;;;;19.00;99.90;;;;;;5029731;28;20005;-63
2022/11/10 11:46:02;;;;;;;;;;;19.30;99.90;;;;;;5030918;28;19928;-63
2022/11/10 11:48:47;;;;;;;;;;;18.80;99.90;;;;;;5023801;28;19983;-63
2022/11/10 11:51:24;;;;;;;;;;;18.70;99.90;;;;;;5030338;28;19963;-64
2022/11/10 11:54:00;;;;;;;;;;;18.60;99.90;;;;;;5028619;28;20300;-63
2022/11/10 11:56:29;;;;;;;;;;;18.60;99.90;;;;;;5025903;28;19928;-63
2022/11/10 11:58:57;;;;;;;;;;;18.60;99.90;;;;;;5021586;28;19959;-63
2022/11/10 12:01:32;;;;;;;;;;;18.20;99.90;;;;;;5026978;28;19996;-63
2022/11/10 12:03:57;;;;;;;;;;;17.60;99.90;;;;;;5025042;28;19960;-64
2022/11/10 12:06:23;;;;;;;;;;;17.00;99.90;;;;;;5020634;28;19913;-63
2022/11/10 12:08:59;;;;;;;;;;;16.80;99.90;;;;;;5025517;28;19993;-65
2022/11/10 12:11:25;;;;;;;;;;;16.80;99.90;;;;;;5028533;28;19917;-62
2022/11/10 12:14:03;;;;;;;;;;;16.50;99.90;;;;;;5024943;28;20252;-63
2022/11/10 12:16:29;;;;;;;;;;;16.30;99.90;;;;;;5027463;28;19917;-63
2022/11/10 12:18:55;;;;;;;;;;;16.20;99.90;;;;;;5029878;28;19913;-63
2022/11/10 12:21:22;;;;;;;;;;;16.10;99.90;;;;;;5027273;28;20004;-62
2022/11/10 12:23:57;;;;;;;;;;;15.90;99.90;;;;;;5024852;28;19913;-63
2022/11/10 12:26:37;;;;;;;;;;;15.70;99.90;;;;;;5026592;28;19920;-63
2022/11/10 12:29:09;;;;;;;;;;;15.50;99.90;;;;;;5030149;28;19913;-63
2022/11/10 12:31:37;;;;;;;;;;;15.40;99.90;;;;;;5014198;28;20332;-64
2022/11/10 12:34:10;;;;;;;;;;;15.30;99.90;;;;;;5029459;28;19920;-64
2022/11/10 12:36:36;;;;;;;;;;;15.40;99.90;;;;;;5025775;28;19917;-64
2022/11/10 12:39:05;;;;;;;;;;;15.50;99.90;;;;;;5031198;28;19920;-63
2022/11/10 12:41:40;;;;;;;;;;;15.70;99.90;;;;;;5028704;28;19913;-63
2022/11/10 12:44:06;;;;;;;;;;;15.90;99.90;;;;;;5030822;28;19924;-62
2022/11/10 12:46:32;;;;;;;;;;;16.20;99.90;;;;;;5028531;28;19921;-63
2022/11/10 12:49:01;;;;;;;;;;;16.30;99.90;;;;;;5023998;28;19920;-62
2022/11/10 12:51:26;;;;;;;;;;;16.10;99.90;;;;;;5025178;28;19913;-62
2022/11/10 12:53:52;;;;;;;;;;;16.00;99.90;;;;;;5028492;28;20331;-63
2022/11/10 12:56:22;;;;;;;;;;;15.80;99.90;;;;;;5023736;28;19969;-63
2022/11/10 12:58:47;;;;;;;;;;;15.60;99.90;;;;;;5029427;28;20060;-63
2022/11/10 13:01:15;;;;;;;;;;;15.40;99.90;;;;;;5029369;28;19971;-63
2022/11/10 13:03:52;;;;;;;;;;;15.30;99.90;;;;;;5028375;28;19913;-63
2022/11/10 13:06:23;;;;;;;;;;;15.30;99.90;;;;;;5030880;28;19920;-63
2022/11/10 13:08:49;;;;;;;;;;;15.50;99.90;;;;;;5028498;28;20015;-63
2022/11/10 13:11:15;;;;;;;;;;;15.50;99.90;;;;;;5029831;28;20044;-63
2022/11/10 13:13:40;;;;;;;;;;;15.60;99.90;;;;;;5028518;28;20015;-62
2022/11/10 13:16:08;;;;;;;;;;;15.60;99.90;;;;;;5030824;28;19913;-62
2022/11/10 13:18:33;;;;;;;;;;;15.60;99.90;;;;;;5027403;28;19917;-64
2022/11/10 13:20:59;;;;;;;;;;;15.60;99.90;;;;;;5030786;28;19920;-63
2022/11/10 13:23:26;;;;;;;;;;;15.60;99.90;;;;;;5030735;28;20399;-64
2022/11/10 13:25:52;;;;;;;;;;;15.60;99.90;;;;;;5025908;28;20002;-63
2022/11/10 13:28:36;;;;;;;;;;;15.70;99.90;;;;;;5029005;28;19913;-62
2022/11/10 13:31:21;;;;;;;;;;;15.70;99.90;;;;;;5022827;28;19920;-63
2022/11/10 13:34:03;;;;;;;;;;;15.60;99.90;;;;;;5024771;28;19920;-63
2022/11/10 13:36:40;;;;;;;;;;;15.50;99.90;;;;;;5023259;28;19917;-63
2022/11/10 13:39:24;;;;;;;;;;;15.40;99.90;;;;;;5029396;28;19959;-62
2022/11/10 13:41:50;;;;;;;;;;;15.30;99.90;;;;;;5025872;28;19913;-63
2022/11/10 13:44:21;;;;;;;;;;;15.10;99.90;;;;;;5026565;28;19913;-62
2022/11/10 13:47:05;;;;;;;;;;;15.10;99.90;;;;;;5023782;28;19921;-63
2022/11/10 13:49:39;;;;;;;;;;;15.10;99.90;;;;;;5018990;28;19913;-63
2022/11/10 13:52:08;;;;;;;;;;;15.10;99.90;;;;;;5022051;28;19917;-63
2022/11/10 13:54:52;;;;;;;;;;;15.10;99.90;;;;;;5024170;28;19913;-62
2022/11/10 13:57:18;;;;;;;;;;;15.10;99.90;;;;;;5024859;28;20324;-64
2022/11/10 13:59:49;;;;;;;;;;;15.10;99.90;;;;;;5020054;28;20446;-63
2022/11/10 14:02:33;;;;;;;;;;;15.10;99.90;;;;;;5031986;28;19917;-63
2022/11/10 14:05:18;;;;;;;;;;;15.00;99.90;;;;;;5020684;28;19996;-63
2022/11/10 14:07:44;;;;;;;;;;;15.00;99.90;;;;;;4997207;28;19917;-63
2022/11/10 14:10:12;;;;;;;;;;;14.90;99.90;;;;;;5027172;28;19913;-64
2022/11/10 14:12:56;;;;;;;;;;;14.90;99.90;;;;;;5026090;28;20368;-63
2022/11/10 14:15:22;;;;;;;;;;;15.00;99.90;;;;;;5026978;28;19913;-63
2022/11/10 14:17:52;;;;;;;;;;;15.00;99.90;;;;;;5022998;28;19921;-63
2022/11/10 14:20:23;;;;;;;;;;;15.00;99.90;;;;;;5022537;28;19924;-63
2022/11/10 14:22:50;;;;;;;;;;;15.10;99.90;;;;;;5019552;28;20230;-63
2022/11/10 14:25:18;;;;;;;;;;;15.20;99.90;;;;;;5026959;28;20336;-63
2022/11/10 14:27:44;;;;;;;;;;;15.30;99.90;;;;;;5016587;28;20365;-63
2022/11/10 14:30:25;;;;;;;;;;;15.30;99.90;;;;;;5019476;28;19920;-64
2022/11/10 14:32:55;;;;;;;;;;;15.30;99.90;;;;;;5019499;28;19936;-64
2022/11/10 14:35:22;;;;;;;;;;;15.40;99.90;;;;;;5024258;28;19936;-64
2022/11/10 14:37:48;;;;;;;;;;;15.60;99.90;;;;;;5021239;28;19921;-64